Racecast

Eric Mellott

Berthoud (CO) · 12 · TRI VALLEYCO D4A3A · Compare head to head

Athlete rating 123.4 2026 TF season
Best race 126.3 TF
Races 42
Seasons 4 2023 — 2026

RankedNation #10561·CO #316·CO D4A #175·TRI VALLEY #5·Team #8 ?

Speed rating — all races

Cross Country

XC speed rating

2025 XC 119.2

Berthoud (CO) · Grade 12

Date Meet Event Result Place Rating Difficulty PR/SR Flags
2025-11-01 Norris Penrose Event Center 5000m 18:07.5 101st · 4th on team 118.9 +0.067 CSR
2025-10-10 Spring Canyon Park 5000m 17:32.4 16th · 3rd on team 119.4 +0.037 ★CR CSR
2025-09-26 North Lake Park 5000m 17:57.2 20th · 2nd on team 118.7 +0.041 ★CR CSR
2025-08-30 Fort Collins High School 5000m 17:23 54th · 3rd on team 119.8 +0.023 ★PR ★CR SR CSR RSR

2024 XC 122.0

Berthoud (CO) · Grade 11

Date Meet Event Result Place Rating Difficulty PR/SR Flags
2024-11-02 Norris Penrose Event Center 5000m 17:39.7 92nd · 5th on team 122.8 +0.067 PR ★CR R SR CSR RSR
2024-08-30 Jacoby Golf Course 5000m 17:52.2 38th · 2nd on team 121.2 +0.060 ★CR SR CSR RSR

2023 XC 121.9

Berthoud (CO) · Grade 10

Date Meet Event Result Place Rating Difficulty PR/SR Flags
2023-10-28 Norris Penrose Event Center 5000m 17:43.5 58th · 6th on team 121.9 +0.067 PR CR R SR CSR RSR

Track & Field

TF speed rating

2026 TF 120.9

Berthoud (CO) · Grade 12

Date Meet Event Result Place Rating Difficulty PR/SR Flags
2026-05-09 Teddy's Last Chance 800m 2:03.06 38th · 2nd on team 125.0 -0.014
2026-05-08 Hoka St. Vrain Invitational 1600m 4:35.46 77th · 3rd on team 124.6 -0.015 ★PR SR
2026-04-29 Longs Peak and Northern Conference Championships 3200m 10:12.87 5th · 1st on team 121.7 -0.014 ★PR SR
2026-04-29 Longs Peak and Northern Conference Championships 1600m 4:43.69 8th · 3rd on team 121.2 -0.014 SR
2026-04-25 WelCo Championships 3200m 10:13.98 3rd · 1st on team 121.4 -0.014 PR SR
2026-04-21 NOCO Berthoud Qualifier 800m 2:02.77 3rd · 3rd on team 126.3 -0.007 ★PR ★R SR RSR
2026-04-18 Randall Hess Roughrider Invitational 1600m 4:46.44 36th · 2nd on team 120.0 -0.014 SR
2026-04-10 Grizzly Invitational 1600m 4:49.53 2nd · 1st on team 119.1 -0.012 SR
2026-04-07 NoCo JV Meet #4 400m 55.54 3rd · 1st on team -0.004 ★PR SR
2026-04-04 Altitude Running Invitational 3200m 10:24.42 12th · 1st on team 119.7 -0.012 PR SR
2026-03-21 Runners Roost of Fort Collins Invitational 800m 2:09.73 17th · 3rd on team 118.9 -0.012 SR
2026-03-07 Max Marr Invitational 1600m 4:49.55 7th · 2nd on team 119.6 -0.007 SR
2026-02-14 Northern Colorado Pre-Season Classic 3200m 10:55.8 7th · 7th on team 114.1 -0.011 SR
2026-02-14 Northern Colorado Pre-Season Classic 400m 57.75 15th · 9th on team -0.011 SR
2026-02-07 Colorado Classic Pre-Season #1 400m 58.14 37th · 17th on team -0.010 SR
2026-02-07 Colorado Classic Pre-Season #1 100m 13.43 47th · 24th on team -0.010 ★PR SR
2026-02-07 Colorado Classic Pre-Season #1 200m 25.89 44th · 18th on team -0.010 ★PR SR
2026-01-29 Mines Indoor HS Meet Series #5 800m 2:10.56 10th · 1st on team 120.2 -0.012 SR RSR
2026-01-11 Colorado United Invitational 200m 26.08 137th · 23rd on team -0.018 PR SR
2026-01-11 Colorado United Invitational 60m 8.51 183rd · 33rd on team -0.018 ★PR SR

2025 TF 118.7

Berthoud (CO) · Grade 11

Date Meet Event Result Place Rating Difficulty PR/SR Flags
2025-05-10 Teddy's Last Chance Qualifier 800m 2:04.26 33rd · 3rd on team 123.8 -0.014 PR R SR RSR
2025-04-30 Longs Peak and Rocky Mountain League Meet 3200m 10:38.72 8th · 2nd on team 116.1 -0.014 PR SR
2025-04-23 NOCO MVHS - TVHS Qualifier 1600m 4:44 5th · 1st on team 121.6 -0.007 RSR
2025-04-11 Pomona Invite Day #1 3200m 10:55.97 62nd · 2nd on team 114.0 -0.011
2025-04-05 Altitude Running Invite 1600m 4:43.11 10th · 1st on team 121.5 -0.012 SR RSR
2025-03-29 Blue and Gold Invitational 3200m 10:50.13 2nd · 1st on team 114.9 -0.009 PR SR RSR
2025-03-13 NOCO Roosevelt Qualifier 400m 57.7 25th · 3rd on team -0.014 PR SR

2024 TF 118.8

Berthoud (CO) · Grade 10

Date Meet Event Result Place Rating Difficulty PR/SR Flags
2024-05-11 Teddy's Last Chance Qualifier 800m 2:05.19 36th · 3rd on team 122.7 -0.014 PR R SR RSR
2024-05-10 HOKA St. Vrain Invitational 1600m 4:42.22 83rd · 4th on team 121.1 -0.015 PR SR RSR
2024-04-29 Randall Hess Roughrider Invitational 1600m 4:47.55 14th · 3rd on team 119.2 -0.014 PR SR RSR
2024-04-04 Altitude Running Invitational 800m 2:12.41 25th · 1st on team 116.7 -0.009 PR SR RSR
2024-03-29 Spartan Spike 3200m 10:51.47 4th · 3rd on team 114.6 -0.007 PR SR RSR

2023 TF 108.3

Berthoud (CO) · Grade 9

Date Meet Event Result Place Rating Difficulty PR/SR Flags
2023-04-08 Fightin' Red Invitational 1600m 5:13.66 19th · 4th on team 110.0 -0.008 PR R SR RSR
2023-03-24 Runners Roost of Fort Collins Invitational 3200m 11:37.85 30th · 2nd on team 106.7 -0.011 PR SR
2023-03-10 Max Marr Invitational 1600m 5:20.24 36th · 6th on team 108.1 -0.007 PR R SR RSR